createdAt,value
2023-04-18T00:02:05.236Z,7.50
2023-04-18T00:04:34.213Z,7.90
2023-04-18T00:07:02.789Z,6.60
2023-04-18T00:09:31.259Z,7.80
2023-04-18T00:11:59.680Z,7.10
2023-04-18T00:14:30.270Z,7.30
2023-04-18T00:16:58.864Z,7.30
2023-04-18T00:19:27.882Z,7.20
2023-04-18T00:21:58.184Z,7.30
2023-04-18T00:24:26.772Z,7.50
2023-04-18T00:26:55.137Z,7.40
2023-04-18T00:29:23.528Z,7.30
2023-04-18T00:31:54.442Z,7.20
2023-04-18T00:34:23.131Z,6.80
2023-04-18T00:36:51.562Z,7.10
2023-04-18T00:39:20.142Z,7.40
2023-04-18T00:41:48.393Z,7.10
2023-04-18T00:44:16.946Z,6.80
2023-04-18T00:46:45.505Z,5.50
2023-04-18T00:49:14.098Z,6.60
2023-04-18T00:51:43.285Z,6.60
2023-04-18T00:54:13.688Z,6.20
2023-04-18T00:56:42.733Z,6.80
2023-04-18T00:59:12.102Z,6.00
2023-04-18T01:01:41.955Z,6.00
2023-04-18T01:04:10.356Z,5.90
2023-04-18T01:06:39.329Z,6.00
2023-04-18T01:09:08.048Z,6.00
2023-04-18T01:11:36.514Z,5.70
2023-04-18T01:14:07.189Z,5.80
2023-04-18T01:16:37.292Z,5.40
2023-04-18T01:19:06.503Z,6.10
2023-04-18T01:21:37.405Z,6.60
2023-04-18T01:24:14.175Z,6.20
2023-04-18T01:26:45.125Z,5.90
2023-04-18T01:29:13.987Z,5.60
2023-04-18T01:31:42.717Z,6.00
2023-04-18T01:34:11.787Z,6.00
2023-04-18T01:36:42.626Z,6.30
2023-04-18T01:39:13.587Z,5.90
2023-04-18T01:41:42.545Z,8.60
2023-04-18T01:44:11.525Z,5.60
2023-04-18T01:46:41.182Z,6.10
2023-04-18T01:49:10.708Z,11.30
2023-04-18T01:51:39.176Z,17.80
2023-04-18T01:54:07.823Z,6.40
2023-04-18T01:56:36.164Z,6.60
2023-04-18T01:59:04.556Z,6.00
2023-04-18T02:01:33.077Z,5.40
2023-04-18T02:04:01.650Z,5.40
2023-04-18T02:06:29.951Z,6.10
2023-04-18T02:08:58.216Z,5.80
2023-04-18T02:11:27.027Z,5.60
2023-04-18T02:13:55.512Z,5.60
2023-04-18T02:16:23.973Z,6.00
2023-04-18T02:18:52.903Z,6.00
2023-04-18T02:21:22.184Z,5.90
2023-04-18T02:23:51.139Z,6.20
2023-04-18T02:26:24.020Z,6.40
2023-04-18T02:28:52.554Z,6.00
2023-04-18T02:31:21.058Z,5.70
2023-04-18T02:33:49.509Z,5.80
2023-04-18T02:36:17.994Z,6.20
2023-04-18T02:38:46.448Z,6.70
2023-04-18T02:41:17.759Z,5.90
2023-04-18T02:43:55.696Z,5.90
2023-04-18T02:46:24.383Z,6.40
2023-04-18T02:48:53.069Z,6.20
2023-04-18T02:51:23.694Z,6.00
2023-04-18T02:53:55.408Z,6.00
2023-04-18T02:59:11.667Z,5.80
2023-04-18T03:01:59.622Z,6.40
2023-04-18T03:04:28.310Z,6.10
2023-04-18T03:07:02.830Z,6.60
2023-04-18T03:09:34.141Z,6.60
2023-04-18T03:12:06.775Z,6.40
2023-04-18T03:14:36.478Z,6.00
2023-04-18T03:17:05.449Z,6.50
2023-04-18T03:19:39.050Z,6.60
2023-04-18T03:22:10.464Z,6.10
2023-04-18T03:24:44.208Z,6.10
2023-04-18T03:27:13.882Z,6.10
2023-04-18T03:29:43.320Z,5.70
2023-04-18T03:32:12.812Z,6.00
2023-04-18T03:34:41.325Z,6.00
2023-04-18T03:37:10.103Z,5.30
2023-04-18T03:39:43.441Z,5.80
2023-04-18T03:42:12.128Z,6.20
2023-04-18T03:44:40.870Z,5.30
2023-04-18T03:47:09.554Z,5.60
2023-04-18T03:49:40.616Z,5.10
2023-04-18T03:52:09.488Z,5.50
2023-04-18T03:54:38.180Z,5.80
2023-04-18T03:57:06.868Z,5.50
2023-04-18T03:59:37.100Z,4.70
2023-04-18T04:02:05.758Z,5.50
2023-04-18T04:04:34.663Z,5.50
2023-04-18T04:07:03.373Z,5.60
2023-04-18T04:09:31.838Z,5.20
2023-04-18T04:12:03.098Z,4.80
2023-04-18T04:14:31.772Z,5.00
2023-04-18T04:17:00.770Z,5.10
2023-04-18T04:19:30.701Z,4.90
2023-04-18T04:22:19.545Z,5.20
2023-04-18T04:24:48.229Z,5.20
2023-04-18T04:27:19.241Z,5.40
2023-04-18T04:29:49.392Z,5.70
2023-04-18T04:32:20.583Z,5.00
2023-04-18T04:34:49.745Z,4.50
2023-04-18T04:37:21.597Z,5.00
2023-04-18T04:40:01.053Z,4.90
2023-04-18T04:42:46.209Z,5.50
2023-04-18T04:45:21.124Z,7.90
2023-04-18T04:47:49.453Z,5.40
2023-04-18T04:50:19.129Z,5.50
2023-04-18T04:52:47.923Z,5.00
2023-04-18T04:55:17.731Z,5.00
2023-04-18T04:57:46.317Z,5.40
2023-04-18T05:00:41.417Z,4.90
2023-04-18T05:03:11.033Z,4.30
2023-04-18T05:05:39.614Z,4.30
2023-04-18T05:08:08.295Z,4.10
2023-04-18T05:10:37.417Z,4.90
2023-04-18T05:13:06.084Z,4.70
2023-04-18T05:15:34.975Z,5.10
2023-04-18T05:18:03.616Z,8.60
2023-04-18T05:20:32.252Z,6.10
2023-04-18T05:23:01.339Z,6.70
2023-04-18T05:25:30.142Z,5.90
2023-04-18T05:28:00.655Z,6.70
2023-04-18T05:30:29.283Z,6.90
2023-04-18T05:32:57.967Z,4.60
2023-04-18T05:35:26.624Z,5.00
2023-04-18T05:37:55.304Z,5.60
2023-04-18T05:40:24.106Z,5.40
2023-04-18T05:42:52.679Z,5.20
2023-04-18T05:45:21.267Z,5.50
2023-04-18T05:47:49.691Z,5.20
2023-04-18T05:50:18.333Z,4.90
2023-04-18T05:52:46.737Z,4.60
2023-04-18T05:55:15.132Z,4.90
2023-04-18T05:57:43.886Z,4.40
2023-04-18T06:00:13.193Z,5.30
2023-04-18T06:02:41.914Z,5.40
2023-04-18T06:05:10.941Z,5.20
2023-04-18T06:07:39.752Z,4.70
2023-04-18T06:10:11.323Z,4.80
2023-04-18T06:12:40.675Z,5.10
2023-04-18T06:15:10.187Z,4.60
2023-04-18T06:17:39.950Z,4.30
2023-04-18T06:20:10.937Z,5.30
2023-04-18T06:22:39.354Z,5.30
2023-04-18T06:25:11.114Z,7.00
2023-04-18T06:30:09.053Z,5.50
2023-04-18T06:32:37.457Z,6.00
2023-04-18T06:35:06.778Z,5.20
2023-04-18T06:37:35.553Z,5.70
2023-04-18T06:40:04.354Z,5.00
2023-04-18T06:42:32.836Z,4.40
2023-04-18T06:45:01.539Z,5.40
2023-04-18T06:47:31.355Z,6.40
2023-04-18T06:49:59.927Z,6.50
2023-04-18T06:52:28.406Z,8.60
2023-04-18T06:54:56.854Z,5.90
2023-04-18T06:57:26.389Z,6.60
2023-04-18T06:59:54.729Z,5.90
2023-04-18T07:02:23.167Z,8.60
2023-04-18T07:04:52.069Z,6.80
2023-04-18T07:07:21.241Z,5.20
2023-04-18T07:09:50.239Z,5.50
2023-04-18T07:12:18.825Z,4.60
2023-04-18T07:14:47.606Z,4.40
2023-04-18T07:17:16.083Z,5.10
2023-04-18T07:19:44.958Z,4.40
2023-04-18T07:22:13.464Z,5.00
2023-04-18T07:24:42.559Z,4.30
2023-04-18T07:27:10.952Z,5.60
2023-04-18T07:29:39.436Z,5.10
2023-04-18T07:32:08.710Z,4.70
2023-04-18T07:34:37.766Z,5.00
2023-04-18T07:37:07.232Z,4.90
2023-04-18T07:39:36.377Z,5.30
2023-04-18T07:42:05.005Z,5.20
2023-04-18T07:44:35.946Z,4.90
2023-04-18T07:47:07.265Z,5.10
2023-04-18T07:49:36.187Z,5.60
2023-04-18T07:52:05.164Z,5.00
2023-04-18T07:54:33.672Z,4.80
2023-04-18T07:57:02.294Z,4.80
2023-04-18T07:59:32.551Z,4.60
2023-04-18T08:02:01.137Z,4.60
2023-04-18T08:04:30.630Z,4.90
2023-04-18T08:06:59.461Z,4.80
2023-04-18T08:09:27.763Z,4.80
2023-04-18T08:11:57.243Z,6.00
2023-04-18T08:14:25.723Z,5.20
2023-04-18T08:16:54.520Z,5.70
2023-04-18T08:19:24.119Z,5.30
2023-04-18T08:21:52.805Z,5.50
2023-04-18T08:24:21.291Z,4.50
2023-04-18T08:26:49.773Z,5.80
2023-04-18T08:29:18.367Z,6.10
2023-04-18T08:31:46.888Z,4.50
2023-04-18T08:34:15.533Z,4.80
2023-04-18T08:36:43.914Z,4.80
2023-04-18T08:39:12.978Z,5.00
2023-04-18T08:41:43.466Z,4.10
2023-04-18T08:44:12.909Z,4.80
2023-04-18T08:46:42.035Z,5.50
2023-04-18T08:49:12.012Z,5.60
2023-04-18T08:51:42.073Z,5.20
2023-04-18T08:54:12.546Z,4.80
2023-04-18T08:56:41.394Z,4.70
2023-04-18T08:59:12.006Z,4.50
2023-04-18T09:01:50.037Z,5.60
2023-04-18T09:04:53.252Z,5.90
2023-04-18T09:08:21.818Z,5.10
2023-04-18T09:11:42.729Z,4.60
2023-04-18T09:18:03.734Z,5.40
2023-04-18T09:20:42.542Z,4.90
2023-04-18T09:23:16.834Z,5.10
2023-04-18T09:25:48.302Z,4.90
2023-04-18T09:28:28.918Z,4.60
2023-04-18T09:31:04.681Z,5.30
2023-04-18T09:33:33.319Z,6.00
2023-04-18T09:36:21.745Z,5.80
2023-04-18T09:38:54.611Z,4.70
2023-04-18T09:41:24.430Z,4.30
2023-04-18T09:44:12.488Z,4.90
2023-04-18T09:46:47.136Z,4.20
2023-04-18T09:49:18.093Z,4.40
2023-04-18T09:51:47.780Z,4.20
2023-04-18T09:54:18.593Z,4.10
2023-04-18T09:56:50.883Z,4.20
2023-04-18T09:59:48.106Z,4.10
2023-04-18T10:02:21.407Z,3.60
2023-04-18T10:04:51.950Z,3.80
2023-04-18T10:07:21.539Z,4.00
2023-04-18T10:09:50.169Z,4.30
2023-04-18T10:12:20.180Z,4.20
2023-04-18T10:14:49.234Z,4.10
2023-04-18T10:17:17.898Z,3.60
2023-04-18T10:19:47.129Z,4.10
2023-04-18T10:22:27.667Z,3.90
2023-04-18T10:24:57.345Z,4.00
2023-04-18T10:28:03.375Z,4.20
2023-04-18T10:30:41.583Z,3.90
2023-04-18T10:33:33.869Z,4.10
2023-04-18T10:36:09.516Z,3.70
2023-04-18T10:38:53.305Z,5.00
2023-04-18T10:41:34.996Z,4.20
2023-04-18T10:44:09.317Z,5.00
2023-04-18T10:46:40.508Z,5.00
2023-04-18T10:49:26.422Z,4.10
2023-04-18T10:52:00.856Z,3.60
2023-04-18T10:54:47.449Z,4.30
2023-04-18T10:57:16.302Z,4.60
2023-04-18T10:59:49.548Z,3.70
2023-04-18T11:02:30.461Z,4.00
2023-04-18T11:05:00.916Z,3.70
2023-04-18T11:07:42.264Z,4.70
2023-04-18T11:10:11.459Z,3.90
2023-04-18T11:12:41.484Z,4.60
2023-04-18T11:15:18.042Z,4.00
2023-04-18T11:17:46.719Z,4.40
2023-04-18T11:20:15.630Z,4.60
2023-04-18T11:22:48.219Z,5.00
2023-04-18T11:25:18.323Z,4.90
2023-04-18T11:27:49.350Z,4.40
2023-04-18T11:30:18.409Z,4.20
2023-04-18T11:32:47.110Z,4.50
2023-04-18T11:35:16.566Z,4.60
2023-04-18T11:37:50.568Z,5.10
2023-04-18T11:40:19.153Z,4.30
2023-04-18T11:42:48.145Z,4.80
2023-04-18T11:45:16.625Z,4.40
2023-04-18T11:47:46.708Z,4.40
2023-04-18T11:50:15.840Z,4.70
2023-04-18T11:52:50.890Z,4.70
2023-04-18T11:55:22.031Z,4.40
2023-04-18T11:58:01.664Z,4.10
2023-04-18T12:00:33.308Z,4.70
2023-04-18T12:03:08.846Z,4.50
2023-04-18T12:05:38.985Z,4.20
2023-04-18T12:08:39.725Z,4.40
2023-04-18T12:12:07.901Z,4.50
2023-04-18T12:14:36.622Z,5.00
2023-04-18T12:17:05.089Z,4.50
2023-04-18T12:19:34.808Z,4.90
2023-04-18T12:22:05.564Z,4.70
2023-04-18T12:24:34.111Z,4.90
2023-04-18T12:27:02.701Z,4.50
2023-04-18T12:29:31.604Z,5.20
2023-04-18T12:32:00.278Z,5.00
2023-04-18T12:34:29.345Z,5.30
2023-04-18T12:36:58.037Z,5.10
2023-04-18T12:39:26.558Z,4.90
2023-04-18T12:41:55.495Z,4.70
2023-04-18T12:44:25.047Z,4.60
2023-04-18T12:46:53.836Z,5.00
2023-04-18T12:49:23.032Z,4.70
2023-04-18T12:51:51.820Z,4.90
2023-04-18T12:54:20.918Z,5.20
2023-04-18T12:56:49.305Z,5.90
2023-04-18T12:59:18.396Z,5.10
2023-04-18T13:01:47.024Z,4.60
2023-04-18T13:04:16.206Z,4.60
2023-04-18T13:06:44.844Z,5.40
2023-04-18T13:09:13.439Z,5.60
2023-04-18T13:11:42.658Z,6.10
2023-04-18T13:14:11.320Z,6.10
2023-04-18T13:16:42.423Z,5.50
2023-04-18T13:19:12.575Z,5.90
2023-04-18T13:21:41.809Z,5.90
2023-04-18T13:24:10.396Z,5.50
2023-04-18T13:26:38.976Z,5.40
2023-04-18T13:33:00.330Z,5.20
2023-04-18T13:35:29.311Z,5.40
2023-04-18T13:37:57.770Z,5.50
2023-04-18T13:40:26.997Z,5.70
2023-04-18T13:42:55.644Z,4.90
2023-04-18T13:45:24.580Z,5.40
2023-04-18T13:47:53.137Z,7.40
2023-04-18T13:50:23.333Z,5.30
2023-04-18T13:52:52.232Z,5.30
2023-04-18T13:55:21.372Z,5.60
2023-04-18T13:57:49.954Z,5.70
2023-04-18T14:00:19.681Z,5.50
2023-04-18T14:02:48.601Z,5.20
2023-04-18T14:05:17.344Z,5.00
2023-04-18T14:07:45.932Z,6.00
2023-04-18T14:10:14.672Z,4.90
2023-04-18T14:12:43.246Z,6.80
2023-04-18T14:15:12.193Z,5.20
2023-04-18T14:17:41.510Z,5.20
2023-04-18T14:20:11.923Z,5.70
2023-04-18T14:22:40.306Z,5.50
2023-04-18T14:25:09.622Z,5.20
2023-04-18T14:27:38.194Z,6.00
2023-04-18T14:30:08.855Z,5.20
2023-04-18T14:32:37.439Z,5.70
2023-04-18T14:35:07.657Z,4.80
2023-04-18T14:37:36.069Z,4.00
2023-04-18T14:40:05.716Z,4.50
2023-04-18T14:42:34.318Z,3.90
2023-04-18T14:45:03.607Z,3.60
2023-04-18T14:47:34.870Z,3.90
2023-04-18T14:52:32.051Z,3.70
2023-04-18T14:55:00.740Z,5.00
2023-04-18T14:57:29.608Z,5.10
2023-04-18T14:59:58.014Z,4.40
2023-04-18T15:03:26.379Z,4.00
2023-04-18T15:05:55.202Z,3.60
2023-04-18T15:08:24.056Z,3.90
2023-04-18T15:10:52.607Z,3.50
2023-04-18T15:13:21.014Z,4.40
2023-04-18T15:15:53.913Z,4.20
2023-04-18T15:18:22.594Z,4.90
2023-04-18T15:20:51.835Z,6.30
2023-04-18T15:23:20.893Z,5.30
2023-04-18T15:25:49.478Z,5.10
2023-04-18T15:29:17.657Z,5.20
2023-04-18T15:31:47.007Z,5.30
2023-04-18T15:34:15.871Z,4.80
2023-04-18T15:36:44.739Z,4.90
2023-04-18T15:39:13.538Z,4.80
2023-04-18T15:41:42.433Z,5.40
2023-04-18T15:44:11.698Z,4.40
2023-04-18T15:46:40.931Z,4.70
2023-04-18T15:50:13.724Z,5.00
2023-04-18T15:53:42.037Z,6.00
2023-04-18T15:56:10.799Z,5.10
2023-04-18T15:58:39.786Z,5.10
2023-04-18T16:01:12.451Z,4.40
2023-04-18T16:03:41.197Z,5.00
2023-04-18T16:06:10.774Z,6.20
2023-04-18T16:08:39.470Z,6.10
2023-04-18T16:11:09.364Z,6.20
2023-04-18T16:13:38.462Z,7.00
2023-04-18T16:16:07.393Z,5.90
2023-04-18T16:18:36.140Z,5.10
2023-04-18T16:21:04.943Z,5.50
2023-04-18T16:23:33.512Z,5.00
2023-04-18T16:26:02.092Z,5.30
2023-04-18T16:28:30.915Z,4.00
2023-04-18T16:30:59.331Z,4.40
2023-04-18T16:33:27.992Z,4.60
2023-04-18T16:36:03.405Z,5.60
2023-04-18T16:38:52.055Z,5.40
2023-04-18T16:41:20.754Z,7.30
2023-04-18T16:43:49.331Z,6.40
2023-04-18T16:46:17.940Z,10.00
2023-04-18T16:48:46.917Z,10.20
2023-04-18T16:51:15.904Z,10.60
2023-04-18T16:53:46.104Z,7.50
2023-04-18T16:56:14.522Z,6.70
2023-04-18T16:58:42.990Z,5.10
2023-04-18T17:01:11.674Z,6.10
2023-04-18T17:03:40.454Z,5.40
2023-04-18T17:06:09.094Z,5.20
2023-04-18T17:08:37.837Z,5.00
2023-04-18T17:11:06.844Z,4.70
2023-04-18T17:13:36.342Z,5.40
2023-04-18T17:16:05.978Z,4.60
2023-04-18T17:18:34.509Z,5.00
2023-04-18T17:21:03.653Z,5.40
2023-04-18T17:23:33.155Z,5.10
2023-04-18T17:26:01.865Z,5.60
2023-04-18T17:28:30.717Z,5.60
2023-04-18T17:31:01.662Z,5.20
2023-04-18T17:33:30.856Z,5.10
2023-04-18T17:35:59.442Z,5.00
2023-04-18T17:38:27.919Z,4.70
2023-04-18T17:41:00.903Z,5.40
2023-04-18T17:43:30.083Z,5.80
2023-04-18T17:46:01.382Z,5.90
2023-04-18T17:48:30.039Z,6.50
2023-04-18T17:50:58.606Z,6.00
2023-04-18T17:53:27.111Z,5.80
2023-04-18T17:55:59.477Z,6.30
2023-04-18T17:58:28.488Z,6.10
2023-04-18T18:00:57.459Z,7.00
2023-04-18T18:03:26.487Z,5.80
2023-04-18T18:05:55.215Z,5.60
2023-04-18T18:08:24.441Z,5.60
2023-04-18T18:10:53.256Z,7.40
2023-04-18T18:13:21.924Z,12.50
2023-04-18T18:15:50.610Z,14.00
2023-04-18T18:18:30.606Z,6.10
2023-04-18T18:20:59.459Z,5.40
2023-04-18T18:23:28.042Z,5.40
2023-04-18T18:25:56.938Z,5.50
2023-04-18T18:28:25.620Z,5.20
2023-04-18T18:30:55.896Z,6.60
2023-04-18T18:33:24.434Z,6.90
2023-04-18T18:35:53.842Z,6.60
2023-04-18T18:38:22.826Z,5.80
2023-04-18T18:40:52.062Z,6.10
2023-04-18T18:43:20.406Z,5.10
2023-04-18T18:45:49.116Z,5.80
2023-04-18T18:48:20.440Z,5.50
2023-04-18T18:50:50.404Z,5.10
2023-04-18T18:53:19.330Z,5.10
2023-04-18T18:55:47.821Z,6.90
2023-04-18T18:58:16.470Z,6.60
2023-04-18T19:00:47.235Z,5.20
2023-04-18T19:03:18.568Z,4.80
2023-04-18T19:05:47.292Z,5.40
2023-04-18T19:08:15.728Z,4.50
2023-04-18T19:10:44.285Z,6.00
2023-04-18T19:17:05.702Z,6.70
2023-04-18T19:19:34.082Z,6.10
2023-04-18T19:22:02.779Z,5.50
2023-04-18T19:24:32.230Z,5.40
2023-04-18T19:27:01.265Z,5.70
2023-04-18T19:29:31.886Z,5.20
2023-04-18T19:32:01.590Z,4.80
2023-04-18T19:34:30.303Z,4.90
2023-04-18T19:37:00.013Z,5.50
2023-04-18T19:39:29.516Z,5.60
2023-04-18T19:41:58.213Z,5.40
2023-04-18T19:44:26.996Z,5.20
2023-04-18T19:46:55.582Z,5.40
2023-04-18T19:49:24.264Z,5.20
2023-04-18T19:51:53.055Z,5.50
2023-04-18T19:54:22.141Z,4.80
2023-04-18T19:56:51.362Z,5.60
2023-04-18T19:59:20.242Z,6.00
2023-04-18T20:01:49.233Z,6.00
2023-04-18T20:04:18.259Z,5.90
2023-04-18T20:06:46.809Z,5.70
2023-04-18T20:09:17.131Z,4.80
2023-04-18T20:11:46.746Z,5.20
2023-04-18T20:14:15.100Z,5.50
2023-04-18T20:16:46.121Z,5.80
2023-04-18T20:19:15.722Z,5.10
2023-04-18T20:21:44.474Z,5.60
2023-04-18T20:24:13.865Z,5.70
2023-04-18T20:26:42.374Z,5.60
2023-04-18T20:29:11.585Z,5.60
2023-04-18T20:31:42.492Z,5.30
2023-04-18T20:34:11.368Z,5.60
2023-04-18T20:36:42.689Z,5.20
2023-04-18T20:39:13.256Z,5.60
2023-04-18T20:41:48.813Z,5.70
2023-04-18T20:44:19.512Z,6.10
2023-04-18T20:46:48.329Z,5.90
2023-04-18T20:49:17.004Z,5.60
2023-04-18T20:51:46.214Z,5.30
2023-04-18T20:54:15.082Z,5.90
2023-04-18T20:56:43.893Z,5.40
2023-04-18T20:59:12.478Z,5.70
2023-04-18T21:01:41.548Z,5.30
2023-04-18T21:04:10.136Z,5.40
2023-04-18T21:06:39.115Z,5.40
2023-04-18T21:09:07.842Z,5.80
2023-04-18T21:11:36.320Z,5.60
2023-04-18T21:14:06.930Z,5.50
2023-04-18T21:16:39.431Z,5.00
2023-04-18T21:19:08.807Z,5.60
2023-04-18T21:21:37.386Z,5.40
2023-04-18T21:24:06.212Z,5.40
2023-04-18T21:26:35.012Z,5.20
2023-04-18T21:29:05.024Z,5.40
2023-04-18T21:31:35.008Z,5.40
2023-04-18T21:34:05.650Z,5.50
2023-04-18T21:36:34.147Z,5.30
2023-04-18T21:39:04.267Z,5.80
2023-04-18T21:41:32.969Z,5.00
2023-04-18T21:44:01.542Z,6.00
2023-04-18T21:46:30.547Z,5.20
2023-04-18T21:48:59.014Z,5.20
2023-04-18T21:51:27.701Z,5.40
2023-04-18T21:53:56.286Z,5.40
2023-04-18T21:56:24.887Z,5.40
2023-04-18T21:58:53.559Z,5.20
2023-04-18T22:01:22.482Z,5.60
2023-04-18T22:03:51.554Z,5.60
2023-04-18T22:06:21.091Z,5.90
2023-04-18T22:08:50.352Z,5.80
2023-04-18T22:11:19.256Z,5.50
2023-04-18T22:13:48.034Z,5.60
2023-04-18T22:16:17.840Z,5.70
2023-04-18T22:18:46.232Z,5.40
2023-04-18T22:21:14.708Z,5.20
2023-04-18T22:23:43.622Z,5.00
2023-04-18T22:26:12.084Z,5.20
2023-04-18T22:28:40.869Z,5.20
2023-04-18T22:31:09.892Z,5.80
2023-04-18T22:33:38.449Z,4.90
2023-04-18T22:36:07.341Z,5.30
2023-04-18T22:38:35.827Z,5.20
2023-04-18T22:41:04.380Z,5.10
2023-04-18T22:43:33.102Z,5.10
2023-04-18T22:46:02.929Z,5.50
2023-04-18T22:48:31.904Z,5.20
2023-04-18T22:51:02.120Z,4.90
2023-04-18T22:53:30.811Z,4.80
2023-04-18T22:55:59.401Z,5.50
2023-04-18T22:58:28.083Z,5.50
2023-04-18T23:00:56.567Z,5.90
2023-04-18T23:03:25.145Z,5.70
2023-04-18T23:05:53.954Z,5.50
2023-04-18T23:08:22.934Z,5.50
2023-04-18T23:10:51.427Z,5.50
2023-04-18T23:13:19.797Z,5.20
2023-04-18T23:15:48.435Z,5.90
2023-04-18T23:18:16.888Z,5.70
2023-04-18T23:20:46.178Z,6.10
2023-04-18T23:23:14.755Z,6.20
2023-04-18T23:25:44.293Z,6.40
2023-04-18T23:28:13.863Z,5.60
2023-04-18T23:30:42.657Z,5.20
2023-04-18T23:33:11.554Z,5.10
2023-04-18T23:35:39.826Z,6.20
2023-04-18T23:38:08.619Z,5.50
2023-04-18T23:40:37.312Z,5.30
2023-04-18T23:43:06.203Z,5.30
2023-04-18T23:45:34.520Z,5.60
2023-04-18T23:48:03.334Z,5.40
2023-04-18T23:50:32.155Z,4.90
2023-04-18T23:53:00.837Z,5.70
2023-04-18T23:55:29.321Z,5.20
2023-04-18T23:57:57.910Z,5.20
